sensor_id;sensor_type;location;lat;lon;timestamp;temperature;humidity
68719;DHT22;55696;52.138;5.444;2023-05-13T00:00:25;18.40;52.30
68719;DHT22;55696;52.138;5.444;2023-05-13T00:02:52;18.30;52.50
68719;DHT22;55696;52.138;5.444;2023-05-13T00:05:19;18.30;52.10
68719;DHT22;55696;52.138;5.444;2023-05-13T00:07:46;18.30;52.10
68719;DHT22;55696;52.138;5.444;2023-05-13T00:10:12;18.20;52.20
68719;DHT22;55696;52.138;5.444;2023-05-13T00:12:42;18.30;52.70
68719;DHT22;55696;52.138;5.444;2023-05-13T00:15:09;18.20;53.10
68719;DHT22;55696;52.138;5.444;2023-05-13T00:17:36;18.30;53.70
68719;DHT22;55696;52.138;5.444;2023-05-13T00:20:03;18.20;53.90
68719;DHT22;55696;52.138;5.444;2023-05-13T00:22:30;18.20;54.20
68719;DHT22;55696;52.138;5.444;2023-05-13T00:24:57;18.20;54.20
68719;DHT22;55696;52.138;5.444;2023-05-13T00:27:24;18.00;54.50
68719;DHT22;55696;52.138;5.444;2023-05-13T00:29:51;18.10;54.70
68719;DHT22;55696;52.138;5.444;2023-05-13T00:32:17;18.20;54.80
68719;DHT22;55696;52.138;5.444;2023-05-13T00:34:44;18.70;55.30
68719;DHT22;55696;52.138;5.444;2023-05-13T00:37:11;18.60;56.40
68719;DHT22;55696;52.138;5.444;2023-05-13T00:39:39;17.80;55.00
68719;DHT22;55696;52.138;5.444;2023-05-13T00:42:06;18.50;55.40
68719;DHT22;55696;52.138;5.444;2023-05-13T00:44:33;16.00;53.80
68719;DHT22;55696;52.138;5.444;2023-05-13T00:47:00;17.80;54.70
68719;DHT22;55696;52.138;5.444;2023-05-13T00:49:27;17.70;54.70
68719;DHT22;55696;52.138;5.444;2023-05-13T00:51:54;17.80;54.60
68719;DHT22;55696;52.138;5.444;2023-05-13T00:54:21;17.80;54.50
68719;DHT22;55696;52.138;5.444;2023-05-13T00:56:48;17.90;54.70
68719;DHT22;55696;52.138;5.444;2023-05-13T00:59:20;19.20;55.50
68719;DHT22;55696;52.138;5.444;2023-05-13T01:01:53;17.80;54.80
68719;DHT22;55696;52.138;5.444;2023-05-13T01:04:45;17.70;55.90
68719;DHT22;55696;52.138;5.444;2023-05-13T01:07:20;18.50;56.50
68719;DHT22;55696;52.138;5.444;2023-05-13T01:09:59;17.60;54.70
68719;DHT22;55696;52.138;5.444;2023-05-13T01:12:55;17.40;56.00
68719;DHT22;55696;52.138;5.444;2023-05-13T01:15:25;17.50;57.00
68719;DHT22;55696;52.138;5.444;2023-05-13T01:18:05;17.40;56.20
68719;DHT22;55696;52.138;5.444;2023-05-13T01:20:33;17.30;57.00
68719;DHT22;55696;52.138;5.444;2023-05-13T01:23:00;17.30;56.00
68719;DHT22;55696;52.138;5.444;2023-05-13T01:25:29;17.20;55.90
68719;DHT22;55696;52.138;5.444;2023-05-13T01:27:56;17.30;55.90
68719;DHT22;55696;52.138;5.444;2023-05-13T01:30:23;17.10;56.00
68719;DHT22;55696;52.138;5.444;2023-05-13T01:32:52;17.20;56.50
68719;DHT22;55696;52.138;5.444;2023-05-13T01:35:19;17.10;56.60
68719;DHT22;55696;52.138;5.444;2023-05-13T01:37:47;17.00;56.60
68719;DHT22;55696;52.138;5.444;2023-05-13T01:40:16;16.90;56.40
68719;DHT22;55696;52.138;5.444;2023-05-13T01:43:00;16.90;56.10
68719;DHT22;55696;52.138;5.444;2023-05-13T01:45:28;16.70;55.90
68719;DHT22;55696;52.138;5.444;2023-05-13T01:47:56;16.80;56.70
68719;DHT22;55696;52.138;5.444;2023-05-13T01:50:24;16.60;56.10
68719;DHT22;55696;52.138;5.444;2023-05-13T01:52:51;16.70;56.50
68719;DHT22;55696;52.138;5.444;2023-05-13T01:55:18;17.50;57.00
68719;DHT22;55696;52.138;5.444;2023-05-13T01:57:47;16.70;56.50
68719;DHT22;55696;52.138;5.444;2023-05-13T02:00:14;17.60;57.00
68719;DHT22;55696;52.138;5.444;2023-05-13T02:02:41;16.70;57.10
68719;DHT22;55696;52.138;5.444;2023-05-13T02:05:08;16.60;56.60
68719;DHT22;55696;52.138;5.444;2023-05-13T02:07:35;16.50;56.90
68719;DHT22;55696;52.138;5.444;2023-05-13T02:10:02;16.50;57.20
68719;DHT22;55696;52.138;5.444;2023-05-13T02:12:31;16.50;57.30
68719;DHT22;55696;52.138;5.444;2023-05-13T02:14:57;16.50;57.30
68719;DHT22;55696;52.138;5.444;2023-05-13T02:17:24;16.40;57.10
68719;DHT22;55696;52.138;5.444;2023-05-13T02:19:52;16.30;57.10
68719;DHT22;55696;52.138;5.444;2023-05-13T02:22:18;16.30;57.40
68719;DHT22;55696;52.138;5.444;2023-05-13T02:24:45;16.30;57.40
68719;DHT22;55696;52.138;5.444;2023-05-13T02:27:12;16.40;57.80
68719;DHT22;55696;52.138;5.444;2023-05-13T02:29:41;16.40;57.30
68719;DHT22;55696;52.138;5.444;2023-05-13T02:32:09;16.20;57.10
68719;DHT22;55696;52.138;5.444;2023-05-13T02:34:36;16.30;57.00
68719;DHT22;55696;52.138;5.444;2023-05-13T02:37:04;16.20;57.00
68719;DHT22;55696;52.138;5.444;2023-05-13T02:39:32;16.20;57.20
68719;DHT22;55696;52.138;5.444;2023-05-13T02:41:59;16.00;57.20
68719;DHT22;55696;52.138;5.444;2023-05-13T02:44:30;15.90;57.40
68719;DHT22;55696;52.138;5.444;2023-05-13T02:46:58;15.90;57.70
68719;DHT22;55696;52.138;5.444;2023-05-13T02:49:26;15.90;57.70
68719;DHT22;55696;52.138;5.444;2023-05-13T02:51:53;16.00;57.90
68719;DHT22;55696;52.138;5.444;2023-05-13T02:54:27;15.80;58.10
68719;DHT22;55696;52.138;5.444;2023-05-13T02:56:53;15.90;58.20
68719;DHT22;55696;52.138;5.444;2023-05-13T02:59:20;15.80;58.40
68719;DHT22;55696;52.138;5.444;2023-05-13T03:01:47;15.80;58.60
68719;DHT22;55696;52.138;5.444;2023-05-13T03:04:15;15.70;58.70
68719;DHT22;55696;52.138;5.444;2023-05-13T03:06:41;15.70;58.80
68719;DHT22;55696;52.138;5.444;2023-05-13T03:09:08;15.70;58.90
68719;DHT22;55696;52.138;5.444;2023-05-13T03:11:35;17.00;59.70
68719;DHT22;55696;52.138;5.444;2023-05-13T03:14:02;15.60;59.20
68719;DHT22;55696;52.138;5.444;2023-05-13T03:16:28;15.60;59.30
68719;DHT22;55696;52.138;5.444;2023-05-13T03:18:56;15.50;59.30
68719;DHT22;55696;52.138;5.444;2023-05-13T03:21:23;16.20;60.00
68719;DHT22;55696;52.138;5.444;2023-05-13T03:23:50;15.60;59.80
68719;DHT22;55696;52.138;5.444;2023-05-13T03:26:18;15.40;60.00
68719;DHT22;55696;52.138;5.444;2023-05-13T03:28:46;15.50;60.20
68719;DHT22;55696;52.138;5.444;2023-05-13T03:31:13;15.90;60.30
68719;DHT22;55696;52.138;5.444;2023-05-13T03:33:40;15.50;60.30
68719;DHT22;55696;52.138;5.444;2023-05-13T03:36:07;15.50;60.30
68719;DHT22;55696;52.138;5.444;2023-05-13T03:38:35;15.50;60.60
68719;DHT22;55696;52.138;5.444;2023-05-13T03:41:02;15.30;60.50
68719;DHT22;55696;52.138;5.444;2023-05-13T03:43:29;15.30;60.80
68719;DHT22;55696;52.138;5.444;2023-05-13T03:46:00;15.40;60.90
68719;DHT22;55696;52.138;5.444;2023-05-13T03:48:27;15.30;61.10
68719;DHT22;55696;52.138;5.444;2023-05-13T03:50:56;15.20;61.00
68719;DHT22;55696;52.138;5.444;2023-05-13T03:53:23;15.30;61.20
68719;DHT22;55696;52.138;5.444;2023-05-13T03:55:52;15.20;61.40
68719;DHT22;55696;52.138;5.444;2023-05-13T03:58:19;15.10;61.50
68719;DHT22;55696;52.138;5.444;2023-05-13T04:00:48;15.10;61.80
68719;DHT22;55696;52.138;5.444;2023-05-13T04:03:15;15.10;62.20
68719;DHT22;55696;52.138;5.444;2023-05-13T04:05:45;15.00;61.90
68719;DHT22;55696;52.138;5.444;2023-05-13T04:08:12;15.00;63.10
68719;DHT22;55696;52.138;5.444;2023-05-13T04:10:39;15.10;61.90
68719;DHT22;55696;52.138;5.444;2023-05-13T04:13:06;15.10;62.00
68719;DHT22;55696;52.138;5.444;2023-05-13T04:15:33;15.10;62.30
68719;DHT22;55696;52.138;5.444;2023-05-13T04:18:00;15.10;62.20
68719;DHT22;55696;52.138;5.444;2023-05-13T04:20:27;15.00;62.20
68719;DHT22;55696;52.138;5.444;2023-05-13T04:22:54;14.90;62.20
68719;DHT22;55696;52.138;5.444;2023-05-13T04:25:21;15.00;62.30
68719;DHT22;55696;52.138;5.444;2023-05-13T04:27:48;15.00;62.40
68719;DHT22;55696;52.138;5.444;2023-05-13T04:30:26;14.10;61.90
68719;DHT22;55696;52.138;5.444;2023-05-13T04:32:53;15.00;62.40
68719;DHT22;55696;52.138;5.444;2023-05-13T04:35:20;15.10;62.50
68719;DHT22;55696;52.138;5.444;2023-05-13T04:37:51;15.00;62.40
68719;DHT22;55696;52.138;5.444;2023-05-13T04:40:19;15.00;62.40
68719;DHT22;55696;52.138;5.444;2023-05-13T04:42:47;15.20;62.60
68719;DHT22;55696;52.138;5.444;2023-05-13T04:45:24;16.10;63.10
68719;DHT22;55696;52.138;5.444;2023-05-13T04:47:51;15.10;62.60
68719;DHT22;55696;52.138;5.444;2023-05-13T04:50:18;15.10;62.70
68719;DHT22;55696;52.138;5.444;2023-05-13T04:52:45;15.10;62.60
68719;DHT22;55696;52.138;5.444;2023-05-13T04:55:13;15.10;62.60
68719;DHT22;55696;52.138;5.444;2023-05-13T04:57:41;15.20;62.80
68719;DHT22;55696;52.138;5.444;2023-05-13T05:00:09;15.20;62.70
68719;DHT22;55696;52.138;5.444;2023-05-13T05:02:38;15.30;63.10
68719;DHT22;55696;52.138;5.444;2023-05-13T05:05:05;15.30;62.80
68719;DHT22;55696;52.138;5.444;2023-05-13T05:07:33;15.30;62.90
68719;DHT22;55696;52.138;5.444;2023-05-13T05:10:00;16.10;63.70
68719;DHT22;55696;52.138;5.444;2023-05-13T05:12:29;15.30;62.50
68719;DHT22;55696;52.138;5.444;2023-05-13T05:14:57;15.30;62.60
68719;DHT22;55696;52.138;5.444;2023-05-13T05:17:24;15.40;62.70
68719;DHT22;55696;52.138;5.444;2023-05-13T05:19:51;15.60;62.70
68719;DHT22;55696;52.138;5.444;2023-05-13T05:22:17;15.40;62.50
68719;DHT22;55696;52.138;5.444;2023-05-13T05:24:44;15.50;62.50
68719;DHT22;55696;52.138;5.444;2023-05-13T05:27:13;15.50;62.60
68719;DHT22;55696;52.138;5.444;2023-05-13T05:29:40;15.50;62.60
68719;DHT22;55696;52.138;5.444;2023-05-13T05:32:07;15.60;62.50
68719;DHT22;55696;52.138;5.444;2023-05-13T05:34:34;15.60;62.60
68719;DHT22;55696;52.138;5.444;2023-05-13T05:37:01;15.60;62.60
68719;DHT22;55696;52.138;5.444;2023-05-13T05:39:30;16.20;62.80
68719;DHT22;55696;52.138;5.444;2023-05-13T05:41:56;15.80;62.40
68719;DHT22;55696;52.138;5.444;2023-05-13T05:44:23;15.80;62.40
68719;DHT22;55696;52.138;5.444;2023-05-13T05:46:50;15.80;62.20
68719;DHT22;55696;52.138;5.444;2023-05-13T05:49:18;15.90;62.10
68719;DHT22;55696;52.138;5.444;2023-05-13T05:51:45;15.90;62.10
68719;DHT22;55696;52.138;5.444;2023-05-13T05:54:12;16.90;62.40
68719;DHT22;55696;52.138;5.444;2023-05-13T05:56:38;16.40;62.30
68719;DHT22;55696;52.138;5.444;2023-05-13T05:59:05;16.10;62.00
68719;DHT22;55696;52.138;5.444;2023-05-13T06:01:32;16.20;61.90
68719;DHT22;55696;52.138;5.444;2023-05-13T06:04:03;16.30;61.80
68719;DHT22;55696;52.138;5.444;2023-05-13T06:06:30;16.40;62.20
68719;DHT22;55696;52.138;5.444;2023-05-13T06:08:58;16.30;61.70
68719;DHT22;55696;52.138;5.444;2023-05-13T06:11:26;16.30;61.70
68719;DHT22;55696;52.138;5.444;2023-05-13T06:13:53;16.40;61.70
68719;DHT22;55696;52.138;5.444;2023-05-13T06:16:20;16.50;62.00
68719;DHT22;55696;52.138;5.444;2023-05-13T06:18:47;16.40;61.50
68719;DHT22;55696;52.138;5.444;2023-05-13T06:21:14;16.60;61.70
68719;DHT22;55696;52.138;5.444;2023-05-13T06:23:41;16.60;61.50
68719;DHT22;55696;52.138;5.444;2023-05-13T06:26:07;16.70;61.60
68719;DHT22;55696;52.138;5.444;2023-05-13T06:28:34;16.90;61.50
68719;DHT22;55696;52.138;5.444;2023-05-13T06:31:01;16.90;61.20
68719;DHT22;55696;52.138;5.444;2023-05-13T06:33:28;17.90;61.60
68719;DHT22;55696;52.138;5.444;2023-05-13T06:35:55;17.00;60.90
68719;DHT22;55696;52.138;5.444;2023-05-13T06:38:23;17.20;60.70
68719;DHT22;55696;52.138;5.444;2023-05-13T06:40:54;17.20;60.60
68719;DHT22;55696;52.138;5.444;2023-05-13T06:43:28;17.20;60.60
68719;DHT22;55696;52.138;5.444;2023-05-13T06:45:57;17.30;60.90
68719;DHT22;55696;52.138;5.444;2023-05-13T06:48:27;17.40;60.90
68719;DHT22;55696;52.138;5.444;2023-05-13T06:50:53;17.60;61.00
68719;DHT22;55696;52.138;5.444;2023-05-13T06:53:21;19.50;61.50
68719;DHT22;55696;52.138;5.444;2023-05-13T06:55:48;17.70;60.40
68719;DHT22;55696;52.138;5.444;2023-05-13T06:58:15;17.80;59.90
68719;DHT22;55696;52.138;5.444;2023-05-13T07:00:42;17.90;60.10
68719;DHT22;55696;52.138;5.444;2023-05-13T07:03:09;18.10;60.00
68719;DHT22;55696;52.138;5.444;2023-05-13T07:05:36;18.10;60.10
68719;DHT22;55696;52.138;5.444;2023-05-13T07:08:03;18.10;58.70
68719;DHT22;55696;52.138;5.444;2023-05-13T07:10:34;18.10;58.60
68719;DHT22;55696;52.138;5.444;2023-05-13T07:13:01;17.90;58.90
68719;DHT22;55696;52.138;5.444;2023-05-13T07:15:28;18.60;60.00
68719;DHT22;55696;52.138;5.444;2023-05-13T07:17:55;18.10;59.20
68719;DHT22;55696;52.138;5.444;2023-05-13T07:20:22;19.00;58.70
68719;DHT22;55696;52.138;5.444;2023-05-13T07:22:49;18.60;57.50
68719;DHT22;55696;52.138;5.444;2023-05-13T07:25:17;18.50;57.50
68719;DHT22;55696;52.138;5.444;2023-05-13T07:27:44;18.50;57.40
68719;DHT22;55696;52.138;5.444;2023-05-13T07:30:11;18.70;57.70
68719;DHT22;55696;52.138;5.444;2023-05-13T07:32:39;18.80;57.70
68719;DHT22;55696;52.138;5.444;2023-05-13T07:35:07;19.10;57.90
68719;DHT22;55696;52.138;5.444;2023-05-13T07:37:34;19.10;57.90
68719;DHT22;55696;52.138;5.444;2023-05-13T07:40:06;19.00;57.00
68719;DHT22;55696;52.138;5.444;2023-05-13T07:42:34;19.10;56.90
68719;DHT22;55696;52.138;5.444;2023-05-13T07:45:01;19.10;56.90
68719;DHT22;55696;52.138;5.444;2023-05-13T07:47:27;19.10;56.60
68719;DHT22;55696;52.138;5.444;2023-05-13T07:49:56;19.10;56.30
68719;DHT22;55696;52.138;5.444;2023-05-13T07:52:23;19.20;56.50
68719;DHT22;55696;52.138;5.444;2023-05-13T07:54:50;19.20;56.40
68719;DHT22;55696;52.138;5.444;2023-05-13T07:57:17;19.40;56.60
68719;DHT22;55696;52.138;5.444;2023-05-13T07:59:44;19.40;56.30
68719;DHT22;55696;52.138;5.444;2023-05-13T08:02:11;20.50;56.40
68719;DHT22;55696;52.138;5.444;2023-05-13T08:04:38;19.50;55.60
68719;DHT22;55696;52.138;5.444;2023-05-13T08:07:05;19.70;55.20
68719;DHT22;55696;52.138;5.444;2023-05-13T08:09:32;19.50;55.20
68719;DHT22;55696;52.138;5.444;2023-05-13T08:11:58;19.70;54.90
68719;DHT22;55696;52.138;5.444;2023-05-13T08:14:26;19.60;54.60
68719;DHT22;55696;52.138;5.444;2023-05-13T08:16:53;19.80;54.00
68719;DHT22;55696;52.138;5.444;2023-05-13T08:19:20;19.70;54.00
68719;DHT22;55696;52.138;5.444;2023-05-13T08:21:47;19.80;53.90
68719;DHT22;55696;52.138;5.444;2023-05-13T08:24:13;19.80;53.90
68719;DHT22;55696;52.138;5.444;2023-05-13T08:26:40;19.90;54.20
68719;DHT22;55696;52.138;5.444;2023-05-13T08:29:08;20.00;54.00
68719;DHT22;55696;52.138;5.444;2023-05-13T08:31:38;20.50;53.70
68719;DHT22;55696;52.138;5.444;2023-05-13T08:34:05;19.90;53.60
68719;DHT22;55696;52.138;5.444;2023-05-13T08:36:32;20.00;52.60
68719;DHT22;55696;52.138;5.444;2023-05-13T08:38:59;20.10;53.10
68719;DHT22;55696;52.138;5.444;2023-05-13T08:41:28;20.20;53.30
68719;DHT22;55696;52.138;5.444;2023-05-13T08:43:57;20.30;53.70
68719;DHT22;55696;52.138;5.444;2023-05-13T08:46:26;20.60;53.60
68719;DHT22;55696;52.138;5.444;2023-05-13T08:48:54;20.40;53.70
68719;DHT22;55696;52.138;5.444;2023-05-13T08:51:22;20.60;53.20
68719;DHT22;55696;52.138;5.444;2023-05-13T08:53:50;20.60;52.80
68719;DHT22;55696;52.138;5.444;2023-05-13T08:56:18;20.70;52.70
68719;DHT22;55696;52.138;5.444;2023-05-13T08:58:45;20.80;52.40
68719;DHT22;55696;52.138;5.444;2023-05-13T09:01:12;21.00;52.60
68719;DHT22;55696;52.138;5.444;2023-05-13T09:03:54;21.10;52.10
68719;DHT22;55696;52.138;5.444;2023-05-13T09:06:22;21.10;52.10
68719;DHT22;55696;52.138;5.444;2023-05-13T09:08:48;21.10;51.60
68719;DHT22;55696;52.138;5.444;2023-05-13T09:11:15;21.40;51.30
68719;DHT22;55696;52.138;5.444;2023-05-13T09:13:43;21.40;50.70
68719;DHT22;55696;52.138;5.444;2023-05-13T09:16:12;21.40;50.80
68719;DHT22;55696;52.138;5.444;2023-05-13T09:18:40;21.40;50.80
68719;DHT22;55696;52.138;5.444;2023-05-13T09:21:28;21.30;50.70
68719;DHT22;55696;52.138;5.444;2023-05-13T09:24:05;21.40;51.00
68719;DHT22;55696;52.138;5.444;2023-05-13T09:26:37;21.30;51.10
68719;DHT22;55696;52.138;5.444;2023-05-13T09:29:23;21.50;51.20
68719;DHT22;55696;52.138;5.444;2023-05-13T09:31:55;21.50;51.40
68719;DHT22;55696;52.138;5.444;2023-05-13T09:34:33;21.60;51.30
68719;DHT22;55696;52.138;5.444;2023-05-13T09:37:05;21.60;51.00
68719;DHT22;55696;52.138;5.444;2023-05-13T09:39:40;21.70;50.70
68719;DHT22;55696;52.138;5.444;2023-05-13T09:42:17;22.30;52.00
68719;DHT22;55696;52.138;5.444;2023-05-13T09:44:45;21.90;50.70
68719;DHT22;55696;52.138;5.444;2023-05-13T09:47:15;21.90;50.50
68719;DHT22;55696;52.138;5.444;2023-05-13T09:49:44;21.90;49.60
68719;DHT22;55696;52.138;5.444;2023-05-13T09:52:15;22.10;49.10
68719;DHT22;55696;52.138;5.444;2023-05-13T09:54:43;22.30;49.70
68719;DHT22;55696;52.138;5.444;2023-05-13T09:57:12;21.90;49.60
68719;DHT22;55696;52.138;5.444;2023-05-13T09:59:39;22.00;49.50
68719;DHT22;55696;52.138;5.444;2023-05-13T10:02:07;21.90;48.70
68719;DHT22;55696;52.138;5.444;2023-05-13T10:04:34;22.20;49.70
68719;DHT22;55696;52.138;5.444;2023-05-13T10:07:03;22.00;50.00
68719;DHT22;55696;52.138;5.444;2023-05-13T10:09:34;22.20;49.80
68719;DHT22;55696;52.138;5.444;2023-05-13T10:12:02;22.10;48.50
68719;DHT22;55696;52.138;5.444;2023-05-13T10:14:30;22.10;49.30
68719;DHT22;55696;52.138;5.444;2023-05-13T10:16:58;22.00;49.10
68719;DHT22;55696;52.138;5.444;2023-05-13T10:19:25;22.20;49.10
68719;DHT22;55696;52.138;5.444;2023-05-13T10:21:52;22.70;49.60
68719;DHT22;55696;52.138;5.444;2023-05-13T10:24:19;22.20;48.60
68719;DHT22;55696;52.138;5.444;2023-05-13T10:26:49;22.40;48.90
68719;DHT22;55696;52.138;5.444;2023-05-13T10:29:18;22.60;48.80
68719;DHT22;55696;52.138;5.444;2023-05-13T10:31:45;22.60;48.50
68719;DHT22;55696;52.138;5.444;2023-05-13T10:34:13;22.70;48.90
68719;DHT22;55696;52.138;5.444;2023-05-13T10:37:06;22.80;48.90
68719;DHT22;55696;52.138;5.444;2023-05-13T10:44:53;23.60;48.00
68719;DHT22;55696;52.138;5.444;2023-05-13T10:47:21;23.10;47.20
68719;DHT22;55696;52.138;5.444;2023-05-13T10:49:51;23.20;47.60
68719;DHT22;55696;52.138;5.444;2023-05-13T10:52:20;23.60;46.60
68719;DHT22;55696;52.138;5.444;2023-05-13T10:54:59;23.40;45.80
68719;DHT22;55696;52.138;5.444;2023-05-13T10:57:35;23.20;45.50
68719;DHT22;55696;52.138;5.444;2023-05-13T11:00:14;23.50;45.70
68719;DHT22;55696;52.138;5.444;2023-05-13T11:02:42;23.50;45.60
68719;DHT22;55696;52.138;5.444;2023-05-13T11:05:18;23.50;45.90
68719;DHT22;55696;52.138;5.444;2023-05-13T11:07:54;23.70;45.30
68719;DHT22;55696;52.138;5.444;2023-05-13T11:10:26;23.80;45.70
68719;DHT22;55696;52.138;5.444;2023-05-13T11:15:46;24.00;44.30
68719;DHT22;55696;52.138;5.444;2023-05-13T11:18:14;24.00;44.40
68719;DHT22;55696;52.138;5.444;2023-05-13T11:20:50;24.50;45.10
68719;DHT22;55696;52.138;5.444;2023-05-13T11:23:19;24.20;44.40
68719;DHT22;55696;52.138;5.444;2023-05-13T11:25:46;24.40;45.00
68719;DHT22;55696;52.138;5.444;2023-05-13T11:29:08;24.50;44.00
68719;DHT22;55696;52.138;5.444;2023-05-13T11:31:49;24.50;44.20
68719;DHT22;55696;52.138;5.444;2023-05-13T11:34:19;24.70;42.80
68719;DHT22;55696;52.138;5.444;2023-05-13T11:39:21;24.70;42.70
68719;DHT22;55696;52.138;5.444;2023-05-13T11:41:49;25.20;43.80
68719;DHT22;55696;52.138;5.444;2023-05-13T11:44:21;25.00;42.80
68719;DHT22;55696;52.138;5.444;2023-05-13T11:46:53;24.90;41.80
68719;DHT22;55696;52.138;5.444;2023-05-13T11:49:41;25.00;42.20
68719;DHT22;55696;52.138;5.444;2023-05-13T11:54:52;25.20;40.40
68719;DHT22;55696;52.138;5.444;2023-05-13T11:57:24;25.30;40.90
68719;DHT22;55696;52.138;5.444;2023-05-13T12:00:04;25.50;42.20
68719;DHT22;55696;52.138;5.444;2023-05-13T12:02:35;25.60;40.70
68719;DHT22;55696;52.138;5.444;2023-05-13T12:05:07;25.70;39.80
68719;DHT22;55696;52.138;5.444;2023-05-13T12:07:36;25.90;39.90
68719;DHT22;55696;52.138;5.444;2023-05-13T12:10:04;26.10;39.10
68719;DHT22;55696;52.138;5.444;2023-05-13T12:12:33;26.30;38.30
68719;DHT22;55696;52.138;5.444;2023-05-13T12:15:06;26.60;38.10
68719;DHT22;55696;52.138;5.444;2023-05-13T12:17:34;26.50;38.60
68719;DHT22;55696;52.138;5.444;2023-05-13T12:25:45;26.80;37.20
68719;DHT22;55696;52.138;5.444;2023-05-13T12:28:16;27.00;38.20
68719;DHT22;55696;52.138;5.444;2023-05-13T12:30:57;27.10;38.10
68719;DHT22;55696;52.138;5.444;2023-05-13T12:35:54;27.30;34.90
68719;DHT22;55696;52.138;5.444;2023-05-13T12:38:22;27.30;34.70
68719;DHT22;55696;52.138;5.444;2023-05-13T12:40:50;27.50;34.00
68719;DHT22;55696;52.138;5.444;2023-05-13T12:43:18;27.40;32.60
68719;DHT22;55696;52.138;5.444;2023-05-13T12:45:47;27.30;32.00
68719;DHT22;55696;52.138;5.444;2023-05-13T12:48:22;27.30;33.00
68719;DHT22;55696;52.138;5.444;2023-05-13T12:50:49;27.40;33.20
68719;DHT22;55696;52.138;5.444;2023-05-13T12:53:16;27.60;33.60
68719;DHT22;55696;52.138;5.444;2023-05-13T12:55:43;27.90;33.20
68719;DHT22;55696;52.138;5.444;2023-05-13T12:58:10;27.80;32.60
68719;DHT22;55696;52.138;5.444;2023-05-13T13:00:38;27.80;31.60
68719;DHT22;55696;52.138;5.444;2023-05-13T13:03:06;27.80;31.70
68719;DHT22;55696;52.138;5.444;2023-05-13T13:05:34;27.80;31.30
68719;DHT22;55696;52.138;5.444;2023-05-13T13:08:01;27.80;31.20
68719;DHT22;55696;52.138;5.444;2023-05-13T13:10:30;27.90;32.00
68719;DHT22;55696;52.138;5.444;2023-05-13T13:12:57;28.00;31.30
68719;DHT22;55696;52.138;5.444;2023-05-13T13:15:24;27.90;31.10
68719;DHT22;55696;52.138;5.444;2023-05-13T13:17:51;27.80;30.80
68719;DHT22;55696;52.138;5.444;2023-05-13T13:20:18;27.90;31.20
68719;DHT22;55696;52.138;5.444;2023-05-13T13:22:44;27.80;31.80
68719;DHT22;55696;52.138;5.444;2023-05-13T13:25:11;27.90;30.20
68719;DHT22;55696;52.138;5.444;2023-05-13T13:27:38;27.70;30.10
68719;DHT22;55696;52.138;5.444;2023-05-13T13:30:05;27.90;31.60
68719;DHT22;55696;52.138;5.444;2023-05-13T13:32:33;28.10;30.90
68719;DHT22;55696;52.138;5.444;2023-05-13T13:35:01;28.10;30.00
68719;DHT22;55696;52.138;5.444;2023-05-13T13:37:29;28.20;29.70
68719;DHT22;55696;52.138;5.444;2023-05-13T13:39:56;28.10;28.80
68719;DHT22;55696;52.138;5.444;2023-05-13T13:42:22;28.20;29.20
68719;DHT22;55696;52.138;5.444;2023-05-13T13:44:59;28.20;29.20
68719;DHT22;55696;52.138;5.444;2023-05-13T13:47:27;28.10;28.90
68719;DHT22;55696;52.138;5.444;2023-05-13T13:49:54;28.20;30.00
68719;DHT22;55696;52.138;5.444;2023-05-13T13:52:21;28.50;30.80
68719;DHT22;55696;52.138;5.444;2023-05-13T13:54:49;28.70;29.70
68719;DHT22;55696;52.138;5.444;2023-05-13T13:57:16;28.80;28.30
68719;DHT22;55696;52.138;5.444;2023-05-13T13:59:42;28.70;28.90
68719;DHT22;55696;52.138;5.444;2023-05-13T14:02:09;28.80;29.30
68719;DHT22;55696;52.138;5.444;2023-05-13T14:04:36;28.90;28.00
68719;DHT22;55696;52.138;5.444;2023-05-13T14:07:03;28.90;27.90
68719;DHT22;55696;52.138;5.444;2023-05-13T14:09:30;29.20;28.40
68719;DHT22;55696;52.138;5.444;2023-05-13T14:11:58;29.30;27.90
68719;DHT22;55696;52.138;5.444;2023-05-13T14:14:25;29.40;28.50
68719;DHT22;55696;52.138;5.444;2023-05-13T14:16:53;29.90;28.70
68719;DHT22;55696;52.138;5.444;2023-05-13T14:19:19;29.40;27.50
68719;DHT22;55696;52.138;5.444;2023-05-13T14:21:46;29.40;28.90
68719;DHT22;55696;52.138;5.444;2023-05-13T14:24:13;29.80;29.20
68719;DHT22;55696;52.138;5.444;2023-05-13T14:26:40;29.80;28.50
68719;DHT22;55696;52.138;5.444;2023-05-13T14:29:07;30.10;27.80
68719;DHT22;55696;52.138;5.444;2023-05-13T14:31:33;30.20;27.50
68719;DHT22;55696;52.138;5.444;2023-05-13T14:34:00;30.10;26.70
68719;DHT22;55696;52.138;5.444;2023-05-13T14:36:27;29.90;26.50
68719;DHT22;55696;52.138;5.444;2023-05-13T14:38:54;29.60;26.00
68719;DHT22;55696;52.138;5.444;2023-05-13T14:41:20;29.40;26.40
68719;DHT22;55696;52.138;5.444;2023-05-13T14:43:48;29.30;27.40
68719;DHT22;55696;52.138;5.444;2023-05-13T14:46:15;29.60;27.60
68719;DHT22;55696;52.138;5.444;2023-05-13T14:48:42;29.70;27.30
68719;DHT22;55696;52.138;5.444;2023-05-13T14:51:09;29.90;27.80
68719;DHT22;55696;52.138;5.444;2023-05-13T14:53:38;30.00;26.70
68719;DHT22;55696;52.138;5.444;2023-05-13T14:56:06;29.90;26.20
68719;DHT22;55696;52.138;5.444;2023-05-13T14:58:32;29.70;25.60
68719;DHT22;55696;52.138;5.444;2023-05-13T15:00:59;29.60;26.80
68719;DHT22;55696;52.138;5.444;2023-05-13T15:03:26;29.70;26.70
68719;DHT22;55696;52.138;5.444;2023-05-13T15:05:53;29.70;26.30
68719;DHT22;55696;52.138;5.444;2023-05-13T15:08:20;29.70;26.50
68719;DHT22;55696;52.138;5.444;2023-05-13T15:10:47;29.70;26.10
68719;DHT22;55696;52.138;5.444;2023-05-13T15:13:13;29.90;26.50
68719;DHT22;55696;52.138;5.444;2023-05-13T15:15:40;29.70;26.90
68719;DHT22;55696;52.138;5.444;2023-05-13T15:18:07;29.90;26.00
68719;DHT22;55696;52.138;5.444;2023-05-13T15:20:34;29.70;26.30
68719;DHT22;55696;52.138;5.444;2023-05-13T15:23:01;29.70;26.70
68719;DHT22;55696;52.138;5.444;2023-05-13T15:25:27;29.80;27.80
68719;DHT22;55696;52.138;5.444;2023-05-13T15:27:55;30.00;26.90
68719;DHT22;55696;52.138;5.444;2023-05-13T15:30:22;29.90;26.50
68719;DHT22;55696;52.138;5.444;2023-05-13T15:32:49;30.00;26.70
68719;DHT22;55696;52.138;5.444;2023-05-13T15:35:16;30.00;26.20
68719;DHT22;55696;52.138;5.444;2023-05-13T15:37:43;30.00;26.30
68719;DHT22;55696;52.138;5.444;2023-05-13T15:40:10;30.00;25.50
68719;DHT22;55696;52.138;5.444;2023-05-13T15:42:37;29.90;25.70
68719;DHT22;55696;52.138;5.444;2023-05-13T15:45:04;29.90;25.40
68719;DHT22;55696;52.138;5.444;2023-05-13T15:47:31;29.70;25.00
68719;DHT22;55696;52.138;5.444;2023-05-13T15:49:58;29.50;25.60
68719;DHT22;55696;52.138;5.444;2023-05-13T15:52:24;29.50;26.20
68719;DHT22;55696;52.138;5.444;2023-05-13T15:54:51;29.50;25.90
68719;DHT22;55696;52.138;5.444;2023-05-13T15:57:18;29.50;26.50
68719;DHT22;55696;52.138;5.444;2023-05-13T15:59:45;29.70;26.50